Latest Weather Observations for Mount Lofty

IDS60801

Issued at 6:41 pm CDT Friday 18 January 2019 (issued every 10 minutes, with the page automatically refreshed every 10 minutes)

About weather observations | Map of weather stations | Latest weather observations for SA | Other Formats
Station Details ID: 023842 Name: MOUNT LOFTY Lat: -34.98 Lon: 138.71 Height: 685.0 m
Data from the previous 72 hours. | See also: Recent months at Mount Lofty
Date/Time
CDT
Temp
°C
App
Temp
°C
Dew
Point
°C
Rel
Hum
%
Delta-T
°C
Wind Press
QNH
hPa
Press
MSL
hPa
Rain since
9am
mm
Dir  Spd
km/h
Gust
km/h
Spd
kts
Gust
kts
18/06:30pm 17.8 15.5 10.4 62 4.1 ESE 13 22 7 12 - - 0.0
18/06:00pm 19.4 18.1 11.4 60 4.5 ESE 9 15 5 8 - - 0.0
18/05:30pm 20.3 19.5 13.0 63 4.3 ESE 9 19 5 10 - - 0.0
18/05:00pm 20.9 21.1 14.8 68 3.7 SE 7 19 4 10 - - 0.0
18/04:30pm 21.7 21.9 14.1 62 4.6 SSE 6 13 3 7 - - 0.0
18/04:00pm 22.3 21.2 10.5 47 6.7 SW 7 17 4 9 - - 0.0
18/03:30pm 22.6 21.3 10.1 45 7.0 SW 7 13 4 7 - - 0.0
18/03:00pm 21.6 20.3 9.8 47 6.6 W 7 15 4 8 - - 0.0
18/02:30pm 21.5 20.7 11.2 52 5.9 W 6 11 3 6 - - 0.0
18/02:00pm 21.3 20.9 12.4 57 5.2 W 6 15 3 8 - - 0.0
18/01:30pm 20.0 20.5 14.1 69 3.5 W 4 9 2 5 - - 0.0
18/01:00pm 20.4 21.0 15.4 73 3.1 WSW 6 11 3 6 - - 0.0
18/12:30pm 21.4 22.1 15.7 70 3.5 W 6 11 3 6 - - 0.0
18/12:00pm 21.7 22.6 16.0 70 3.5 W 6 9 3 5 - - 0.0
18/11:30am 22.3 22.9 15.9 67 4.0 W 7 17 4 9 - - 0.0
18/11:00am 22.7 23.6 16.5 68 3.9 WSW 7 13 4 7 - - 0.0
18/10:30am 21.9 23.5 16.8 73 3.2 W 4 9 2 5 - - 0.0
18/10:00am 20.2 21.2 16.4 79 2.4 W 6 9 3 5 - - 0.0
18/09:30am 20.7 21.0 15.9 74 3.0 WNW 9 17 5 9 - - 0.0
18/09:00am 20.8 21.4 15.4 71 3.3 W 6 9 3 5 - - 0.0
18/08:30am 21.7 21.9 14.6 64 4.3 W 7 11 4 6 - - 0.0
18/08:00am 23.9 23.6 12.8 49 6.6 W 6 9 3 5 - - 0.0
18/07:30am 25.6 25.0 11.7 42 8.2 W 6 15 3 8 - - 0.0
18/07:00am 25.4 25.1 11.6 42 8.1 WNW 4 9 2 5 - - 0.0
18/06:30am 25.7 25.8 11.5 41 8.3 W 2 6 1 3 - - 0.0
18/06:00am 23.5 23.5 12.5 50 6.5 S 4 7 2 4 - - 0.0
18/05:30am 22.1 22.1 13.5 58 5.1 W 6 13 3 7 - - 0.0
18/05:00am 21.7 21.7 13.6 60 4.8 W 6 13 3 7 - - 0.0
18/04:30am 21.1 21.1 14.3 65 4.1 W 7 11 4 6 - - 0.0
18/04:00am 25.4 25.5 12.6 45 7.6 NW 4 19 2 10 - - 0.0
18/03:30am 23.6 24.0 12.6 50 6.5 WSW 2 4 1 2 - - 0.0
18/03:00am 23.9 23.9 12.5 49 6.7 W 4 9 2 5 - - 0.0
18/02:30am 22.7 22.5 12.9 54 5.8 W 6 7 3 4 - - 0.0
18/02:00am 23.0 22.8 12.9 53 6.0 WSW 6 11 3 6 - - 0.0
18/01:30am 22.9 22.5 12.5 52 6.1 WSW 6 11 3 6 - - 0.0
18/01:00am 25.1 23.8 11.3 42 8.0 W 9 19 5 10 - - 0.0
18/12:30am 26.6 25.5 10.7 37 9.2 W 7 13 4 7 - - 0.0
18/12:00am 27.3 26.6 10.1 34 9.9 WSW 4 9 2 5 - - 0.0
 
Date/Time
CDT
Temp
°C
App
Temp
°C
Dew
Point
°C
Rel
Hum
%
Delta-T
°C
Wind Press
QNH
hPa
Press
MSL
hPa
Rain since
9am
mm
Dir  Spd
km/h
Gust
km/h
Spd
kts
Gust
kts
17/11:30pm 27.0 26.1 10.7 36 9.5 SSW 6 11 3 6 - - 0.0
17/11:00pm 24.9 24.5 11.1 42 8.0 ESE 4 6 2 3 - - 0.0
17/10:30pm 26.4 25.5 10.5 37 9.2 S 6 11 3 6 - - 0.0
17/10:00pm 26.7 25.5 10.4 36 9.4 SSW 7 24 4 13 - - 0.0
17/09:30pm 26.4 25.3 10.5 37 9.2 S 7 15 4 8 - - 0.0
17/09:00pm 24.9 24.3 11.8 44 7.7 SE 6 11 3 6 - - 0.0
17/08:30pm 26.0 24.6 11.0 39 8.7 SSW 9 20 5 11 - - 0.0
17/08:00pm 25.1 24.0 12.0 44 7.7 SSW 9 17 5 9 - - 0.0
17/07:30pm 25.1 23.9 12.7 46 7.4 SW 11 28 6 15 - - 0.0
17/07:00pm 25.6 23.9 12.4 43 7.8 SW 13 30 7 16 - - 0.0
17/06:30pm 25.5 24.3 12.7 45 7.6 SW 11 22 6 12 - - 0.0
17/06:00pm 25.9 25.7 14.7 50 6.9 SW 9 19 5 10 - - 0.0
17/05:30pm 26.8 26.7 13.9 45 7.9 S 7 13 4 7 - - 0.0
17/05:00pm 27.6 26.4 11.6 37 9.5 SSW 9 22 5 12 - - 0.0
17/04:30pm 30.7 29.9 11.1 30 11.6 SW 6 13 3 7 - - 0.0
17/04:00pm 32.1 30.9 9.6 25 13.1 SW 6 11 3 6 - - 0.0
17/03:30pm 32.6 31.5 10.0 25 13.3 SW 6 11 3 6 - - 0.0
17/03:00pm 32.6 31.9 10.0 25 13.3 W 4 11 2 6 - - 0.0
17/02:30pm 33.1 31.9 10.4 25 13.5 WSW 7 13 4 7 - - 0.0
17/02:00pm 32.6 32.1 10.6 26 13.1 SW 4 7 2 4 - - 0.0
17/01:30pm 32.0 31.3 10.1 26 12.9 N 4 7 2 4 - - 0.0
17/01:00pm 31.2 30.6 10.5 28 12.2 NNW 4 7 2 4 - - 0.0
17/12:30pm 30.8 30.4 11.2 30 11.7 N 4 7 2 4 - - 0.0
17/12:00pm 31.1 31.1 11.0 29 11.9 NNW 2 4 1 2 - - 0.0
17/11:30am 30.4 29.9 10.9 30 11.5 WSW 4 6 2 3 - - 0.0
17/11:00am 30.1 30.2 11.6 32 11.1 SW 2 7 1 4 - - 0.0
17/10:30am 30.0 29.2 11.0 31 11.2 SW 6 9 3 5 - - 0.0
17/10:00am 28.7 28.8 12.6 37 9.7 SW 4 9 2 5 - - 0.0
17/09:30am 28.3 27.7 11.8 36 9.8 WSW 6 13 3 7 - - 0.0
17/09:00am 27.7 27.1 11.7 37 9.5 WSW 6 13 3 7 - - 0.0
17/08:30am 27.7 26.7 10.9 35 9.8 WSW 7 17 4 9 - - 0.0
17/08:00am 27.3 26.4 10.5 35 9.7 WSW 6 13 3 7 - - 0.0
17/07:30am 27.6 26.3 9.9 33 10.2 SSW 7 20 4 11 - - 0.0
17/07:00am 27.4 26.6 9.7 33 10.1 SW 4 9 2 5 - - 0.0
17/06:30am 25.5 24.9 10.5 39 8.6 SE 4 9 2 5 - - 0.0
17/06:00am 25.9 25.0 10.5 38 8.9 S 6 11 3 6 - - 0.0
17/05:30am 23.1 22.3 11.2 47 6.8 ESE 6 11 3 6 - - 0.0
17/05:00am 23.7 22.6 10.7 44 7.4 SE 7 17 4 9 - - 0.0
17/04:30am 24.4 22.7 9.9 40 8.2 SSE 9 20 5 11 - - 0.0
17/04:00am 24.2 21.5 10.5 42 7.8 S 15 28 8 15 - - 0.0
17/03:30am 23.7 21.2 9.7 41 7.9 SSE 13 28 7 15 - - 0.0
17/03:00am 24.1 22.2 8.9 38 8.5 SSE 9 19 5 10 - - 0.0
17/02:30am 24.3 22.3 10.2 41 8.0 WSW 11 22 6 12 - - 0.0
17/02:00am 22.0 21.7 15.4 66 4.1 WSW 11 19 6 10 - - 0.0
17/01:56am 22.7 22.5 14.8 61 4.8 W 9 19 5 10 - - 0.0
17/01:30am 27.8 26.4 7.1 27 11.4 SW 4 7 2 4 - - 0.0
17/01:00am 27.2 26.6 7.6 29 10.8 CALM 0 0 0 0 - - 0.0
17/12:30am 27.1 25.9 9.5 33 10.0 N 6 11 3 6 - - 0.0
17/12:00am 26.7 25.4 10.0 35 9.6 WNW 7 15 4 8 - - 0.0
 
Date/Time
CDT
Temp
°C
App
Temp
°C
Dew
Point
°C
Rel
Hum
%
Delta-T
°C
Wind Press
QNH
hPa
Press
MSL
hPa
Rain since
9am
mm
Dir  Spd
km/h
Gust
km/h
Spd
kts
Gust
kts
16/11:30pm 29.1 26.6 8.2 27 11.8 W 11 24 6 13 - - 0.0
16/11:00pm 28.6 27.1 8.3 28 11.4 W 6 13 3 7 - - 0.0
16/10:30pm 29.4 27.6 7.9 26 12.1 WNW 7 15 4 8 - - 0.0
16/10:00pm 29.5 27.8 8.5 27 11.9 W 7 17 4 9 - - 0.0
16/09:30pm 30.3 28.4 9.2 27 12.1 W 9 17 5 9 - - 0.0
16/09:00pm 30.1 28.3 9.6 28 11.9 W 9 20 5 11 - - 0.0
16/08:30pm 30.0 27.3 10.5 30 11.4 WNW 15 22 8 12 - - 0.0
16/08:00pm 30.5 26.9 9.9 28 12.0 WNW 19 33 10 18 - - 0.0
16/07:30pm 31.7 27.6 8.7 24 13.2 NW 20 35 11 19 - - 0.0
16/07:00pm 31.6 27.9 8.0 23 13.4 NW 17 30 9 16 - - 0.0
16/06:30pm 31.4 27.8 8.4 24 13.1 NW 17 33 9 18 - - 0.0
16/06:00pm 32.0 26.6 6.2 20 14.3 NW 24 39 13 21 - - 0.0
16/05:30pm 33.0 29.1 5.5 18 15.1 WNW 15 30 8 16 - - 0.0
16/05:00pm 33.8 30.5 6.2 18 15.4 NW 13 19 7 10 - - 0.0
16/04:30pm 33.6 29.8 6.0 18 15.3 NW 15 32 8 17 - - 0.0
16/04:00pm 33.3 30.4 6.6 19 15.0 NNW 11 19 6 10 - - 0.0
16/03:30pm 33.6 31.5 6.0 18 15.3 NNE 6 9 3 5 - - 0.0
16/03:00pm 34.4 31.2 5.0 16 16.2 N 11 22 6 12 - - 0.0
16/02:30pm 33.6 29.9 2.4 14 16.4 N 11 20 6 11 - - 0.0
16/02:00pm 34.0 31.0 1.7 13 16.8 NNW 7 15 4 8 - - 0.0
16/01:30pm 35.2 33.4 5.6 16 16.5 E 4 6 2 3 - - 0.0
16/01:00pm 34.0 33.3 8.6 21 14.7 ESE 2 6 1 3 - - 0.0
16/12:30pm 31.6 30.8 6.6 21 13.9 CALM 0 0 0 0 - - 0.0
16/12:00pm 31.9 29.6 0.1 13 15.9 WNW 2 4 1 2 - - 0.0
16/11:30am 32.1 28.4 0.2 13 16.0 NNW 9 15 5 8 - - 0.0
16/11:00am 32.5 29.5 0.6 13 16.2 N 6 9 3 5 - - 0.0
16/10:30am 31.9 28.8 1.1 14 15.7 NW 7 13 4 7 - - 0.0
16/10:00am 32.2 29.1 0.3 13 16.0 N 6 11 3 6 - - 0.0
16/09:30am 30.0 27.0 0.6 15 14.7 N 6 9 3 5 - - 0.0
16/09:00am 26.3 24.0 2.9 22 11.9 ESE 4 6 2 3 - - 0.0
16/08:30am 25.3 23.4 5.0 27 10.6 ESE 4 6 2 3 - - 0.0
16/08:00am 25.9 23.1 1.9 21 11.9 ESE 6 9 3 5 - - 0.0
16/07:30am 26.3 23.7 0.9 19 12.4 E 4 6 2 3 - - 0.0
16/07:00am 27.0 23.9 -0.1 17 13.1 E 6 9 3 5 - - 0.0
16/06:30am 25.2 22.5 0.0 19 12.0 NNW 4 9 2 5 - - 0.0
16/06:00am 24.0 21.0 1.0 22 11.1 ESE 6 9 3 5 - - 0.0
16/05:30am 23.4 20.2 0.5 22 10.9 ESE 7 15 4 8 - - 0.0
16/05:00am 23.0 19.2 -0.5 21 10.9 ESE 9 13 5 7 - - 0.0
16/04:30am 22.7 18.8 -1.4 20 11.0 ESE 9 13 5 7 - - 0.0
16/04:00am 23.0 19.1 -1.8 19 11.3 ESE 9 13 5 7 - - 0.0
16/03:30am 22.9 19.1 -0.6 21 10.9 ESE 9 15 5 8 - - 0.0
16/03:00am 22.7 18.5 -0.7 21 10.8 ESE 11 19 6 10 - - 0.0
16/02:30am 22.1 18.0 0.0 23 10.3 ESE 11 19 6 10 - - 0.0
16/02:00am 21.4 17.5 1.1 26 9.6 ESE 11 17 6 9 - - 0.0
16/01:30am 21.5 17.6 1.2 26 9.6 ESE 11 17 6 9 - - 0.0
16/01:00am 21.2 17.8 2.0 28 9.2 ESE 9 19 5 10 - - 0.0
16/12:30am 21.0 17.8 2.8 30 8.9 ESE 9 15 5 8 - - 0.0
16/12:00am 20.9 18.0 4.5 34 8.3 ESE 9 17 5 9 - - 0.0
 
Date/Time
CDT
Temp
°C
App
Temp
°C
Dew
Point
°C
Rel
Hum
%
Delta-T
°C
Wind Press
QNH
hPa
Press
MSL
hPa
Rain since
9am
mm
Dir  Spd
km/h
Gust
km/h
Spd
kts
Gust
kts
15/11:30pm 22.2 18.9 4.7 32 8.9 ESE 11 17 6 9 - - 0.0
15/11:00pm 23.9 20.6 4.3 28 10.0 ESE 11 20 6 11 - - 0.0
15/10:30pm 27.0 22.9 -2.7 14 13.7 ESE 9 17 5 9 - - 0.0
15/10:00pm 28.1 24.0 -2.9 13 14.3 ESE 9 15 5 8 - - 0.0
15/09:30pm 28.3 24.6 -2.7 13 14.4 ESE 7 11 4 6 - - 0.0
15/09:00pm 28.8 25.3 -1.3 14 14.4 ESE 7 13 4 7 - - 0.0
15/08:30pm 29.3 26.3 0.9 16 14.2 ESE 6 9 3 5 - - 0.0
15/08:00pm 30.3 27.8 1.7 16 14.6 ESE 4 4 2 2 - - 0.0
15/07:30pm 31.0 28.8 3.1 17 14.6 ESE 4 6 2 3 - - 0.0
15/07:00pm 32.9 30.9 4.6 17 15.3 ESE 4 6 2 3 - - 0.0

Other Formats:

Comma delimited format used in spreadsheet applications
http://www.bom.gov.au/fwo/IDS60801/IDS60801.95678.axf

JavaScript Object Notation format (JSON) in row-major order
http://www.bom.gov.au/fwo/IDS60801/IDS60801.95678.json